sensor_id;sensor_type;location;lat;lon;timestamp;temperature;humidity
10133;DHT22;5106;50.926;7.080;2023-10-08T00:00:45;17.90;90.90
10133;DHT22;5106;50.926;7.080;2023-10-08T00:03:13;17.90;90.80
10133;DHT22;5106;50.926;7.080;2023-10-08T00:05:40;18.00;91.10
10133;DHT22;5106;50.926;7.080;2023-10-08T00:08:07;17.90;91.20
10133;DHT22;5106;50.926;7.080;2023-10-08T00:10:37;18.00;91.00
10133;DHT22;5106;50.926;7.080;2023-10-08T00:13:05;18.00;91.10
10133;DHT22;5106;50.926;7.080;2023-10-08T00:15:37;18.00;90.50
10133;DHT22;5106;50.926;7.080;2023-10-08T00:18:04;18.00;89.80
10133;DHT22;5106;50.926;7.080;2023-10-08T00:20:31;18.10;89.60
10133;DHT22;5106;50.926;7.080;2023-10-08T00:23:01;18.20;89.70
10133;DHT22;5106;50.926;7.080;2023-10-08T00:25:33;18.20;89.70
10133;DHT22;5106;50.926;7.080;2023-10-08T00:27:59;18.20;89.50
10133;DHT22;5106;50.926;7.080;2023-10-08T00:30:27;18.20;89.30
10133;DHT22;5106;50.926;7.080;2023-10-08T00:32:53;18.30;89.20
10133;DHT22;5106;50.926;7.080;2023-10-08T00:35:18;18.40;89.20
10133;DHT22;5106;50.926;7.080;2023-10-08T00:37:46;18.40;88.70
10133;DHT22;5106;50.926;7.080;2023-10-08T00:40:13;18.50;88.50
10133;DHT22;5106;50.926;7.080;2023-10-08T00:42:44;18.50;88.50
10133;DHT22;5106;50.926;7.080;2023-10-08T00:45:12;18.50;88.50
10133;DHT22;5106;50.926;7.080;2023-10-08T00:47:41;18.50;88.70
10133;DHT22;5106;50.926;7.080;2023-10-08T00:50:10;18.50;88.70
10133;DHT22;5106;50.926;7.080;2023-10-08T00:52:47;18.50;88.50
10133;DHT22;5106;50.926;7.080;2023-10-08T00:55:23;18.50;88.90
10133;DHT22;5106;50.926;7.080;2023-10-08T00:57:57;18.40;89.10
10133;DHT22;5106;50.926;7.080;2023-10-08T01:00:31;18.40;88.70
10133;DHT22;5106;50.926;7.080;2023-10-08T01:02:59;18.50;88.50
10133;DHT22;5106;50.926;7.080;2023-10-08T01:05:27;18.40;88.50
10133;DHT22;5106;50.926;7.080;2023-10-08T01:08:12;18.40;88.70
10133;DHT22;5106;50.926;7.080;2023-10-08T01:10:43;18.40;88.90
10133;DHT22;5106;50.926;7.080;2023-10-08T01:13:09;18.40;88.70
10133;DHT22;5106;50.926;7.080;2023-10-08T01:15:41;18.40;89.00
10133;DHT22;5106;50.926;7.080;2023-10-08T01:18:10;18.40;88.20
10133;DHT22;5106;50.926;7.080;2023-10-08T01:20:44;18.40;88.20
10133;DHT22;5106;50.926;7.080;2023-10-08T01:23:12;18.40;88.20
10133;DHT22;5106;50.926;7.080;2023-10-08T01:25:47;18.50;88.10
10133;DHT22;5106;50.926;7.080;2023-10-08T01:28:23;18.40;88.10
10133;DHT22;5106;50.926;7.080;2023-10-08T01:30:53;18.40;88.20
10133;DHT22;5106;50.926;7.080;2023-10-08T01:33:20;18.40;88.30
10133;DHT22;5106;50.926;7.080;2023-10-08T01:35:47;18.30;88.50
10133;DHT22;5106;50.926;7.080;2023-10-08T01:38:15;18.30;88.80
10133;DHT22;5106;50.926;7.080;2023-10-08T01:40:46;18.30;89.00
10133;DHT22;5106;50.926;7.080;2023-10-08T01:43:16;18.20;89.40
10133;DHT22;5106;50.926;7.080;2023-10-08T01:45:43;18.10;89.70
10133;DHT22;5106;50.926;7.080;2023-10-08T01:48:14;18.00;89.40
10133;DHT22;5106;50.926;7.080;2023-10-08T01:50:48;18.00;89.70
10133;DHT22;5106;50.926;7.080;2023-10-08T01:53:15;17.90;90.20
10133;DHT22;5106;50.926;7.080;2023-10-08T01:55:41;17.90;90.40
10133;DHT22;5106;50.926;7.080;2023-10-08T01:58:17;17.70;90.90
10133;DHT22;5106;50.926;7.080;2023-10-08T02:00:47;17.70;91.10
10133;DHT22;5106;50.926;7.080;2023-10-08T02:03:14;17.60;91.40
10133;DHT22;5106;50.926;7.080;2023-10-08T02:05:48;17.60;91.80
10133;DHT22;5106;50.926;7.080;2023-10-08T02:08:14;17.50;92.10
10133;DHT22;5106;50.926;7.080;2023-10-08T02:10:42;17.40;91.80
10133;DHT22;5106;50.926;7.080;2023-10-08T02:13:09;17.30;91.60
10133;DHT22;5106;50.926;7.080;2023-10-08T02:15:45;17.30;92.10
10133;DHT22;5106;50.926;7.080;2023-10-08T02:18:11;17.20;91.40
10133;DHT22;5106;50.926;7.080;2023-10-08T02:20:39;17.20;91.80
10133;DHT22;5106;50.926;7.080;2023-10-08T02:23:05;17.20;92.40
10133;DHT22;5106;50.926;7.080;2023-10-08T02:25:31;17.10;92.70
10133;DHT22;5106;50.926;7.080;2023-10-08T02:27:57;17.10;92.70
10133;DHT22;5106;50.926;7.080;2023-10-08T02:30:23;16.90;93.00
10133;DHT22;5106;50.926;7.080;2023-10-08T02:32:48;16.80;93.10
10133;DHT22;5106;50.926;7.080;2023-10-08T02:35:15;16.80;93.20
10133;DHT22;5106;50.926;7.080;2023-10-08T02:37:43;16.80;93.40
10133;DHT22;5106;50.926;7.080;2023-10-08T02:40:11;16.70;93.50
10133;DHT22;5106;50.926;7.080;2023-10-08T02:42:56;16.60;93.50
10133;DHT22;5106;50.926;7.080;2023-10-08T02:45:27;16.60;93.70
10133;DHT22;5106;50.926;7.080;2023-10-08T02:47:54;16.50;93.90
10133;DHT22;5106;50.926;7.080;2023-10-08T02:50:21;16.40;94.20
10133;DHT22;5106;50.926;7.080;2023-10-08T02:52:50;16.40;94.40
10133;DHT22;5106;50.926;7.080;2023-10-08T02:55:17;16.40;94.40
10133;DHT22;5106;50.926;7.080;2023-10-08T02:58:02;16.30;94.50
10133;DHT22;5106;50.926;7.080;2023-10-08T03:00:29;16.30;94.50
10133;DHT22;5106;50.926;7.080;2023-10-08T03:02:56;16.30;94.70
10133;DHT22;5106;50.926;7.080;2023-10-08T03:05:22;16.20;94.70
10133;DHT22;5106;50.926;7.080;2023-10-08T03:07:48;16.20;94.70
10133;DHT22;5106;50.926;7.080;2023-10-08T03:10:17;16.30;94.70
10133;DHT22;5106;50.926;7.080;2023-10-08T03:12:46;16.20;94.70
10133;DHT22;5106;50.926;7.080;2023-10-08T03:15:13;16.10;94.90
10133;DHT22;5106;50.926;7.080;2023-10-08T03:17:42;16.10;95.10
10133;DHT22;5106;50.926;7.080;2023-10-08T03:20:20;16.10;95.10
10133;DHT22;5106;50.926;7.080;2023-10-08T03:23:16;16.00;95.30
10133;DHT22;5106;50.926;7.080;2023-10-08T03:25:57;16.00;95.40
10133;DHT22;5106;50.926;7.080;2023-10-08T03:28:30;15.90;95.40
10133;DHT22;5106;50.926;7.080;2023-10-08T03:31:01;15.90;95.40
10133;DHT22;5106;50.926;7.080;2023-10-08T03:33:43;15.90;95.30
10133;DHT22;5106;50.926;7.080;2023-10-08T03:36:14;15.80;95.60
10133;DHT22;5106;50.926;7.080;2023-10-08T03:38:47;15.80;95.70
10133;DHT22;5106;50.926;7.080;2023-10-08T03:41:26;15.80;95.60
10133;DHT22;5106;50.926;7.080;2023-10-08T03:43:58;15.80;95.70
10133;DHT22;5106;50.926;7.080;2023-10-08T03:46:38;15.80;95.80
10133;DHT22;5106;50.926;7.080;2023-10-08T03:49:11;15.80;95.80
10133;DHT22;5106;50.926;7.080;2023-10-08T03:51:42;15.80;95.90
10133;DHT22;5106;50.926;7.080;2023-10-08T03:54:07;15.80;95.90
10133;DHT22;5106;50.926;7.080;2023-10-08T03:56:55;15.80;95.80
10133;DHT22;5106;50.926;7.080;2023-10-08T03:59:21;15.80;95.80
10133;DHT22;5106;50.926;7.080;2023-10-08T04:02:06;15.80;95.70
10133;DHT22;5106;50.926;7.080;2023-10-08T04:04:48;15.80;95.60
10133;DHT22;5106;50.926;7.080;2023-10-08T04:07:21;15.80;95.80
10133;DHT22;5106;50.926;7.080;2023-10-08T04:10:09;15.70;95.60
10133;DHT22;5106;50.926;7.080;2023-10-08T04:12:36;15.60;95.80
10133;DHT22;5106;50.926;7.080;2023-10-08T04:15:06;15.60;96.10
10133;DHT22;5106;50.926;7.080;2023-10-08T04:17:40;15.50;96.10
10133;DHT22;5106;50.926;7.080;2023-10-08T04:20:17;15.50;96.20
10133;DHT22;5106;50.926;7.080;2023-10-08T04:23:20;15.50;96.20
10133;DHT22;5106;50.926;7.080;2023-10-08T04:25:47;15.50;96.10
10133;DHT22;5106;50.926;7.080;2023-10-08T04:28:18;15.50;96.20
10133;DHT22;5106;50.926;7.080;2023-10-08T04:30:46;15.40;96.30
10133;DHT22;5106;50.926;7.080;2023-10-08T04:33:16;15.40;96.30
10133;DHT22;5106;50.926;7.080;2023-10-08T04:35:43;15.40;96.40
10133;DHT22;5106;50.926;7.080;2023-10-08T04:38:25;15.40;96.40
10133;DHT22;5106;50.926;7.080;2023-10-08T04:40:52;15.20;96.50
10133;DHT22;5106;50.926;7.080;2023-10-08T04:43:20;15.10;96.50
10133;DHT22;5106;50.926;7.080;2023-10-08T04:45:57;15.10;96.50
10133;DHT22;5106;50.926;7.080;2023-10-08T04:48:23;15.10;96.50
10133;DHT22;5106;50.926;7.080;2023-10-08T04:50:56;15.10;96.50
10133;DHT22;5106;50.926;7.080;2023-10-08T04:53:28;15.10;96.50
10133;DHT22;5106;50.926;7.080;2023-10-08T04:55:59;15.00;96.50
10133;DHT22;5106;50.926;7.080;2023-10-08T04:58:31;15.10;96.50
10133;DHT22;5106;50.926;7.080;2023-10-08T05:00:59;15.10;96.50
10133;DHT22;5106;50.926;7.080;2023-10-08T05:03:48;15.00;96.50
10133;DHT22;5106;50.926;7.080;2023-10-08T05:09:13;15.00;96.50
10133;DHT22;5106;50.926;7.080;2023-10-08T05:11:52;15.00;96.50
10133;DHT22;5106;50.926;7.080;2023-10-08T05:14:19;15.00;96.50
10133;DHT22;5106;50.926;7.080;2023-10-08T05:17:05;15.00;96.50
10133;DHT22;5106;50.926;7.080;2023-10-08T05:19:43;15.00;96.50
10133;DHT22;5106;50.926;7.080;2023-10-08T05:22:41;15.00;96.50
10133;DHT22;5106;50.926;7.080;2023-10-08T05:25:10;15.00;96.50
10133;DHT22;5106;50.926;7.080;2023-10-08T05:27:43;15.00;96.50
10133;DHT22;5106;50.926;7.080;2023-10-08T05:30:16;15.00;96.50
10133;DHT22;5106;50.926;7.080;2023-10-08T05:32:45;15.00;96.50
10133;DHT22;5106;50.926;7.080;2023-10-08T05:35:35;15.00;96.50
10133;DHT22;5106;50.926;7.080;2023-10-08T05:38:04;15.00;96.50
10133;DHT22;5106;50.926;7.080;2023-10-08T05:40:49;15.00;96.50
10133;DHT22;5106;50.926;7.080;2023-10-08T05:43:30;14.90;96.50
10133;DHT22;5106;50.926;7.080;2023-10-08T05:46:03;14.90;96.50
10133;DHT22;5106;50.926;7.080;2023-10-08T05:48:58;14.90;96.50
10133;DHT22;5106;50.926;7.080;2023-10-08T05:51:27;14.80;96.50
10133;DHT22;5106;50.926;7.080;2023-10-08T05:54:19;14.80;96.50
10133;DHT22;5106;50.926;7.080;2023-10-08T05:57:12;14.70;96.50
10133;DHT22;5106;50.926;7.080;2023-10-08T05:59:42;14.80;96.50
10133;DHT22;5106;50.926;7.080;2023-10-08T06:02:27;14.70;96.50
10133;DHT22;5106;50.926;7.080;2023-10-08T06:05:11;14.70;96.50
10133;DHT22;5106;50.926;7.080;2023-10-08T06:07:50;14.70;96.50
10133;DHT22;5106;50.926;7.080;2023-10-08T06:13:13;14.60;96.50
10133;DHT22;5106;50.926;7.080;2023-10-08T06:15:46;14.60;96.50
10133;DHT22;5106;50.926;7.080;2023-10-08T06:18:30;14.60;96.50
10133;DHT22;5106;50.926;7.080;2023-10-08T06:23:27;14.70;96.50
10133;DHT22;5106;50.926;7.080;2023-10-08T06:26:00;14.70;96.50
10133;DHT22;5106;50.926;7.080;2023-10-08T06:28:32;14.70;96.50
10133;DHT22;5106;50.926;7.080;2023-10-08T06:31:01;14.80;96.50
10133;DHT22;5106;50.926;7.080;2023-10-08T06:33:28;14.80;96.50
10133;DHT22;5106;50.926;7.080;2023-10-08T06:35:59;14.80;96.50
10133;DHT22;5106;50.926;7.080;2023-10-08T06:38:29;14.80;96.50
10133;DHT22;5106;50.926;7.080;2023-10-08T06:40:57;14.90;96.50
10133;DHT22;5106;50.926;7.080;2023-10-08T06:43:26;14.90;96.50
10133;DHT22;5106;50.926;7.080;2023-10-08T06:45:52;14.90;96.50
10133;DHT22;5106;50.926;7.080;2023-10-08T06:48:19;14.90;96.50
10133;DHT22;5106;50.926;7.080;2023-10-08T06:50:47;14.90;96.50
10133;DHT22;5106;50.926;7.080;2023-10-08T06:53:13;14.90;96.50
10133;DHT22;5106;50.926;7.080;2023-10-08T06:55:44;14.90;96.50
10133;DHT22;5106;50.926;7.080;2023-10-08T06:58:09;14.90;96.50
10133;DHT22;5106;50.926;7.080;2023-10-08T07:00:37;15.00;96.50
10133;DHT22;5106;50.926;7.080;2023-10-08T07:03:13;15.00;96.50
10133;DHT22;5106;50.926;7.080;2023-10-08T07:05:50;15.00;96.50
10133;DHT22;5106;50.926;7.080;2023-10-08T07:08:22;15.00;96.50
10133;DHT22;5106;50.926;7.080;2023-10-08T07:10:53;15.10;96.50
10133;DHT22;5106;50.926;7.080;2023-10-08T07:13:20;15.10;96.50
10133;DHT22;5106;50.926;7.080;2023-10-08T07:15:50;15.20;96.50
10133;DHT22;5106;50.926;7.080;2023-10-08T07:18:16;15.30;96.50
10133;DHT22;5106;50.926;7.080;2023-10-08T07:20:50;15.30;96.50
10133;DHT22;5106;50.926;7.080;2023-10-08T07:23:20;15.40;96.50
10133;DHT22;5106;50.926;7.080;2023-10-08T07:25:57;15.50;96.50
10133;DHT22;5106;50.926;7.080;2023-10-08T07:28:44;15.50;96.50
10133;DHT22;5106;50.926;7.080;2023-10-08T07:33:53;15.60;96.50
10133;DHT22;5106;50.926;7.080;2023-10-08T07:36:23;15.70;96.50
10133;DHT22;5106;50.926;7.080;2023-10-08T07:38:49;15.70;96.50
10133;DHT22;5106;50.926;7.080;2023-10-08T07:41:14;15.70;96.50
10133;DHT22;5106;50.926;7.080;2023-10-08T07:43:40;15.70;96.50
10133;DHT22;5106;50.926;7.080;2023-10-08T07:46:07;15.80;96.50
10133;DHT22;5106;50.926;7.080;2023-10-08T07:48:33;15.80;96.50
10133;DHT22;5106;50.926;7.080;2023-10-08T07:50:58;15.80;96.50
10133;DHT22;5106;50.926;7.080;2023-10-08T07:53:24;15.80;96.50
10133;DHT22;5106;50.926;7.080;2023-10-08T07:55:51;15.90;96.50
10133;DHT22;5106;50.926;7.080;2023-10-08T07:58:18;15.90;96.50
10133;DHT22;5106;50.926;7.080;2023-10-08T08:00:44;16.00;96.40
10133;DHT22;5106;50.926;7.080;2023-10-08T08:03:20;16.00;96.40
10133;DHT22;5106;50.926;7.080;2023-10-08T08:05:46;16.00;96.20
10133;DHT22;5106;50.926;7.080;2023-10-08T08:08:13;16.10;96.00
10133;DHT22;5106;50.926;7.080;2023-10-08T08:10:43;16.10;96.10
10133;DHT22;5106;50.926;7.080;2023-10-08T08:13:09;16.20;96.10
10133;DHT22;5106;50.926;7.080;2023-10-08T08:15:35;16.20;96.00
10133;DHT22;5106;50.926;7.080;2023-10-08T08:18:07;16.30;95.90
10133;DHT22;5106;50.926;7.080;2023-10-08T08:20:34;16.30;95.70
10133;DHT22;5106;50.926;7.080;2023-10-08T08:23:06;16.40;95.50
10133;DHT22;5106;50.926;7.080;2023-10-08T08:25:40;16.40;95.30
10133;DHT22;5106;50.926;7.080;2023-10-08T08:28:14;16.50;94.90
10133;DHT22;5106;50.926;7.080;2023-10-08T08:30:46;16.60;94.70
10133;DHT22;5106;50.926;7.080;2023-10-08T08:33:13;16.50;94.80
10133;DHT22;5106;50.926;7.080;2023-10-08T08:35:47;16.60;94.90
10133;DHT22;5106;50.926;7.080;2023-10-08T08:38:13;16.60;95.00
10133;DHT22;5106;50.926;7.080;2023-10-08T08:40:39;16.60;95.20
10133;DHT22;5106;50.926;7.080;2023-10-08T08:43:05;16.60;95.20
10133;DHT22;5106;50.926;7.080;2023-10-08T08:45:31;16.60;95.10
10133;DHT22;5106;50.926;7.080;2023-10-08T08:48:00;16.60;95.20
10133;DHT22;5106;50.926;7.080;2023-10-08T08:50:26;16.60;95.30
10133;DHT22;5106;50.926;7.080;2023-10-08T08:52:52;16.60;95.10
10133;DHT22;5106;50.926;7.080;2023-10-08T08:55:18;16.70;94.90
10133;DHT22;5106;50.926;7.080;2023-10-08T08:57:50;16.70;94.80
10133;DHT22;5106;50.926;7.080;2023-10-08T09:00:17;16.70;94.90
10133;DHT22;5106;50.926;7.080;2023-10-08T09:02:47;16.70;95.10
10133;DHT22;5106;50.926;7.080;2023-10-08T09:05:13;16.70;95.60
10133;DHT22;5106;50.926;7.080;2023-10-08T09:08:04;16.80;95.50
10133;DHT22;5106;50.926;7.080;2023-10-08T09:10:34;16.80;95.30
10133;DHT22;5106;50.926;7.080;2023-10-08T09:13:04;16.80;95.20
10133;DHT22;5106;50.926;7.080;2023-10-08T09:15:33;16.90;94.70
10133;DHT22;5106;50.926;7.080;2023-10-08T09:17:59;17.00;94.30
10133;DHT22;5106;50.926;7.080;2023-10-08T09:20:34;17.10;94.10
10133;DHT22;5106;50.926;7.080;2023-10-08T09:23:09;17.20;94.00
10133;DHT22;5106;50.926;7.080;2023-10-08T09:25:39;17.20;94.10
10133;DHT22;5106;50.926;7.080;2023-10-08T09:28:06;17.20;93.80
10133;DHT22;5106;50.926;7.080;2023-10-08T09:30:34;17.20;93.10
10133;DHT22;5106;50.926;7.080;2023-10-08T09:33:05;17.30;93.50
10133;DHT22;5106;50.926;7.080;2023-10-08T09:35:32;17.30;93.70
10133;DHT22;5106;50.926;7.080;2023-10-08T09:37:59;17.40;93.70
10133;DHT22;5106;50.926;7.080;2023-10-08T09:40:25;17.50;94.30
10133;DHT22;5106;50.926;7.080;2023-10-08T09:42:51;17.50;94.10
10133;DHT22;5106;50.926;7.080;2023-10-08T09:45:18;17.50;94.10
10133;DHT22;5106;50.926;7.080;2023-10-08T09:47:52;17.50;94.20
10133;DHT22;5106;50.926;7.080;2023-10-08T09:50:24;17.60;93.90
10133;DHT22;5106;50.926;7.080;2023-10-08T09:55:37;17.70;93.90
10133;DHT22;5106;50.926;7.080;2023-10-08T09:58:08;17.70;93.20
10133;DHT22;5106;50.926;7.080;2023-10-08T10:00:39;17.80;93.60
10133;DHT22;5106;50.926;7.080;2023-10-08T10:03:05;17.80;93.60
10133;DHT22;5106;50.926;7.080;2023-10-08T10:05:33;17.80;93.70
10133;DHT22;5106;50.926;7.080;2023-10-08T10:08:02;17.80;93.70
10133;DHT22;5106;50.926;7.080;2023-10-08T10:10:32;17.90;94.00
10133;DHT22;5106;50.926;7.080;2023-10-08T10:13:09;17.90;93.30
10133;DHT22;5106;50.926;7.080;2023-10-08T10:15:38;17.90;92.90
10133;DHT22;5106;50.926;7.080;2023-10-08T10:18:27;18.00;92.80
10133;DHT22;5106;50.926;7.080;2023-10-08T10:23:42;18.10;93.00
10133;DHT22;5106;50.926;7.080;2023-10-08T10:26:27;18.10;93.40
10133;DHT22;5106;50.926;7.080;2023-10-08T10:31:39;18.10;93.10
10133;DHT22;5106;50.926;7.080;2023-10-08T10:34:08;18.30;93.20
10133;DHT22;5106;50.926;7.080;2023-10-08T10:36:39;18.30;92.60
10133;DHT22;5106;50.926;7.080;2023-10-08T10:39:05;18.30;92.50
10133;DHT22;5106;50.926;7.080;2023-10-08T10:41:53;18.40;92.70
10133;DHT22;5106;50.926;7.080;2023-10-08T10:44:23;18.40;93.00
10133;DHT22;5106;50.926;7.080;2023-10-08T10:46:49;18.40;93.00
10133;DHT22;5106;50.926;7.080;2023-10-08T10:49:21;18.40;93.30
10133;DHT22;5106;50.926;7.080;2023-10-08T10:51:50;18.40;93.10
10133;DHT22;5106;50.926;7.080;2023-10-08T10:54:29;18.40;92.80
10133;DHT22;5106;50.926;7.080;2023-10-08T10:57:02;18.40;92.00
10133;DHT22;5106;50.926;7.080;2023-10-08T10:59:34;18.40;93.00
10133;DHT22;5106;50.926;7.080;2023-10-08T11:02:04;18.50;92.50
10133;DHT22;5106;50.926;7.080;2023-10-08T11:04:48;18.50;92.30
10133;DHT22;5106;50.926;7.080;2023-10-08T11:07:21;18.50;92.60
10133;DHT22;5106;50.926;7.080;2023-10-08T11:09:49;18.50;92.80
10133;DHT22;5106;50.926;7.080;2023-10-08T11:12:18;18.60;92.80
10133;DHT22;5106;50.926;7.080;2023-10-08T11:14:59;18.60;92.80
10133;DHT22;5106;50.926;7.080;2023-10-08T11:17:25;18.70;92.70
10133;DHT22;5106;50.926;7.080;2023-10-08T11:19:54;18.80;92.80
10133;DHT22;5106;50.926;7.080;2023-10-08T11:22:20;18.90;92.60
10133;DHT22;5106;50.926;7.080;2023-10-08T11:24:48;18.90;92.00
10133;DHT22;5106;50.926;7.080;2023-10-08T11:27:17;18.90;92.20
10133;DHT22;5106;50.926;7.080;2023-10-08T11:29:52;18.90;92.30
10133;DHT22;5106;50.926;7.080;2023-10-08T11:32:26;19.00;92.70
10133;DHT22;5106;50.926;7.080;2023-10-08T11:34:58;19.10;93.00
10133;DHT22;5106;50.926;7.080;2023-10-08T11:37:32;19.10;92.70
10133;DHT22;5106;50.926;7.080;2023-10-08T11:40:02;19.10;91.80
10133;DHT22;5106;50.926;7.080;2023-10-08T11:42:42;19.10;91.70
10133;DHT22;5106;50.926;7.080;2023-10-08T11:45:10;19.20;92.20
10133;DHT22;5106;50.926;7.080;2023-10-08T11:47:53;19.20;91.90
10133;DHT22;5106;50.926;7.080;2023-10-08T11:50:27;19.20;91.90
10133;DHT22;5106;50.926;7.080;2023-10-08T11:53:00;19.20;92.30
10133;DHT22;5106;50.926;7.080;2023-10-08T11:55:34;19.10;91.70
10133;DHT22;5106;50.926;7.080;2023-10-08T11:58:02;19.20;92.40
10133;DHT22;5106;50.926;7.080;2023-10-08T12:00:39;19.20;92.20
10133;DHT22;5106;50.926;7.080;2023-10-08T12:03:13;19.30;91.60
10133;DHT22;5106;50.926;7.080;2023-10-08T12:05:46;19.30;91.80
10133;DHT22;5106;50.926;7.080;2023-10-08T12:08:13;19.30;91.80
10133;DHT22;5106;50.926;7.080;2023-10-08T12:10:44;19.40;91.80
10133;DHT22;5106;50.926;7.080;2023-10-08T12:13:12;19.30;92.20
10133;DHT22;5106;50.926;7.080;2023-10-08T12:15:37;19.40;91.90
10133;DHT22;5106;50.926;7.080;2023-10-08T12:18:07;19.40;92.10
10133;DHT22;5106;50.926;7.080;2023-10-08T12:20:59;19.50;91.80
10133;DHT22;5106;50.926;7.080;2023-10-08T12:23:24;19.60;91.30
10133;DHT22;5106;50.926;7.080;2023-10-08T12:25:54;19.50;91.10
10133;DHT22;5106;50.926;7.080;2023-10-08T12:28:21;19.50;91.80
10133;DHT22;5106;50.926;7.080;2023-10-08T12:30:49;19.50;91.80
10133;DHT22;5106;50.926;7.080;2023-10-08T12:33:20;19.50;92.70
10133;DHT22;5106;50.926;7.080;2023-10-08T12:35:47;19.60;92.80
10133;DHT22;5106;50.926;7.080;2023-10-08T12:38:13;19.60;92.40
10133;DHT22;5106;50.926;7.080;2023-10-08T12:40:40;19.60;92.10
10133;DHT22;5106;50.926;7.080;2023-10-08T12:43:14;19.50;91.90
10133;DHT22;5106;50.926;7.080;2023-10-08T12:45:45;19.40;92.00
10133;DHT22;5106;50.926;7.080;2023-10-08T12:48:11;19.50;92.60
10133;DHT22;5106;50.926;7.080;2023-10-08T12:50:39;19.40;92.00
10133;DHT22;5106;50.926;7.080;2023-10-08T12:53:11;19.40;92.60
10133;DHT22;5106;50.926;7.080;2023-10-08T12:55:38;19.40;92.00
10133;DHT22;5106;50.926;7.080;2023-10-08T12:58:08;19.40;92.20
10133;DHT22;5106;50.926;7.080;2023-10-08T13:00:39;19.40;92.40
10133;DHT22;5106;50.926;7.080;2023-10-08T13:03:08;19.50;92.30
10133;DHT22;5106;50.926;7.080;2023-10-08T13:05:43;19.50;92.10
10133;DHT22;5106;50.926;7.080;2023-10-08T13:08:13;19.50;92.30
10133;DHT22;5106;50.926;7.080;2023-10-08T13:10:42;19.50;92.70
10133;DHT22;5106;50.926;7.080;2023-10-08T13:13:10;19.50;93.00
10133;DHT22;5106;50.926;7.080;2023-10-08T13:15:37;19.50;92.90
10133;DHT22;5106;50.926;7.080;2023-10-08T13:18:03;19.60;92.60
10133;DHT22;5106;50.926;7.080;2023-10-08T13:20:29;19.60;92.60
10133;DHT22;5106;50.926;7.080;2023-10-08T13:22:59;19.60;92.40
10133;DHT22;5106;50.926;7.080;2023-10-08T13:25:25;19.60;92.40
10133;DHT22;5106;50.926;7.080;2023-10-08T13:27:51;19.60;92.80
10133;DHT22;5106;50.926;7.080;2023-10-08T13:30:17;19.50;92.70
10133;DHT22;5106;50.926;7.080;2023-10-08T13:32:43;19.50;92.60
10133;DHT22;5106;50.926;7.080;2023-10-08T13:35:09;19.60;93.10
10133;DHT22;5106;50.926;7.080;2023-10-08T13:37:36;19.60;93.40
10133;DHT22;5106;50.926;7.080;2023-10-08T13:40:03;19.60;92.80
10133;DHT22;5106;50.926;7.080;2023-10-08T13:42:28;19.70;92.60
10133;DHT22;5106;50.926;7.080;2023-10-08T13:44:55;19.70;92.40
10133;DHT22;5106;50.926;7.080;2023-10-08T13:47:23;19.70;92.60
10133;DHT22;5106;50.926;7.080;2023-10-08T13:49:52;19.80;92.80
10133;DHT22;5106;50.926;7.080;2023-10-08T13:52:21;19.70;93.00
10133;DHT22;5106;50.926;7.080;2023-10-08T13:54:52;19.70;92.90
10133;DHT22;5106;50.926;7.080;2023-10-08T13:57:21;19.70;92.60
10133;DHT22;5106;50.926;7.080;2023-10-08T13:59:47;19.70;92.80
10133;DHT22;5106;50.926;7.080;2023-10-08T14:02:14;19.70;92.90
10133;DHT22;5106;50.926;7.080;2023-10-08T14:04:43;19.70;92.60
10133;DHT22;5106;50.926;7.080;2023-10-08T14:07:12;19.80;92.90
10133;DHT22;5106;50.926;7.080;2023-10-08T14:09:43;19.80;92.60
10133;DHT22;5106;50.926;7.080;2023-10-08T14:12:11;19.80;92.60
10133;DHT22;5106;50.926;7.080;2023-10-08T14:14:36;19.80;92.70
10133;DHT22;5106;50.926;7.080;2023-10-08T14:17:07;19.80;92.60
10133;DHT22;5106;50.926;7.080;2023-10-08T14:19:35;19.80;92.60
10133;DHT22;5106;50.926;7.080;2023-10-08T14:22:05;19.80;92.50
10133;DHT22;5106;50.926;7.080;2023-10-08T14:24:34;19.90;92.30
10133;DHT22;5106;50.926;7.080;2023-10-08T14:27:03;20.00;92.10
10133;DHT22;5106;50.926;7.080;2023-10-08T14:29:38;20.10;92.00
10133;DHT22;5106;50.926;7.080;2023-10-08T14:32:10;20.10;92.20
10133;DHT22;5106;50.926;7.080;2023-10-08T14:34:36;20.10;92.40
10133;DHT22;5106;50.926;7.080;2023-10-08T14:37:09;20.10;92.40
10133;DHT22;5106;50.926;7.080;2023-10-08T14:39:53;20.10;92.70
10133;DHT22;5106;50.926;7.080;2023-10-08T14:42:37;20.00;92.90
10133;DHT22;5106;50.926;7.080;2023-10-08T14:45:25;20.00;92.80
10133;DHT22;5106;50.926;7.080;2023-10-08T14:47:57;20.00;92.70
10133;DHT22;5106;50.926;7.080;2023-10-08T14:50:24;20.00;92.60
10133;DHT22;5106;50.926;7.080;2023-10-08T14:52:57;20.00;92.60
10133;DHT22;5106;50.926;7.080;2023-10-08T14:55:23;20.00;92.80
10133;DHT22;5106;50.926;7.080;2023-10-08T14:57:49;20.00;92.70
10133;DHT22;5106;50.926;7.080;2023-10-08T15:00:19;20.00;92.80
10133;DHT22;5106;50.926;7.080;2023-10-08T15:02:53;20.00;92.90
10133;DHT22;5106;50.926;7.080;2023-10-08T15:05:23;19.90;93.00
10133;DHT22;5106;50.926;7.080;2023-10-08T15:07:52;19.80;92.80
10133;DHT22;5106;50.926;7.080;2023-10-08T15:10:18;19.70;93.10
10133;DHT22;5106;50.926;7.080;2023-10-08T15:12:44;19.70;93.30
10133;DHT22;5106;50.926;7.080;2023-10-08T15:15:10;19.60;93.50
10133;DHT22;5106;50.926;7.080;2023-10-08T15:17:42;19.60;93.70
10133;DHT22;5106;50.926;7.080;2023-10-08T15:20:10;19.50;93.90
10133;DHT22;5106;50.926;7.080;2023-10-08T15:22:40;19.50;94.10
10133;DHT22;5106;50.926;7.080;2023-10-08T15:25:08;19.40;94.20
10133;DHT22;5106;50.926;7.080;2023-10-08T15:27:37;19.40;94.50
10133;DHT22;5106;50.926;7.080;2023-10-08T15:30:09;19.40;94.80
10133;DHT22;5106;50.926;7.080;2023-10-08T15:32:42;19.40;95.10
10133;DHT22;5106;50.926;7.080;2023-10-08T15:35:15;19.40;95.40
10133;DHT22;5106;50.926;7.080;2023-10-08T15:37:45;19.40;95.50
10133;DHT22;5106;50.926;7.080;2023-10-08T15:40:11;19.40;95.60
10133;DHT22;5106;50.926;7.080;2023-10-08T15:42:43;19.50;95.60
10133;DHT22;5106;50.926;7.080;2023-10-08T15:45:09;19.50;95.60
10133;DHT22;5106;50.926;7.080;2023-10-08T15:47:38;19.50;95.50
10133;DHT22;5106;50.926;7.080;2023-10-08T15:50:04;19.60;95.40
10133;DHT22;5106;50.926;7.080;2023-10-08T15:52:30;19.60;95.40
10133;DHT22;5106;50.926;7.080;2023-10-08T15:54:57;19.70;95.20
10133;DHT22;5106;50.926;7.080;2023-10-08T15:57:23;19.80;94.70
10133;DHT22;5106;50.926;7.080;2023-10-08T15:59:49;20.00;94.50
10133;DHT22;5106;50.926;7.080;2023-10-08T16:02:19;20.00;94.20
10133;DHT22;5106;50.926;7.080;2023-10-08T16:04:45;20.00;94.10
10133;DHT22;5106;50.926;7.080;2023-10-08T16:07:10;20.00;94.10
10133;DHT22;5106;50.926;7.080;2023-10-08T16:09:39;19.90;94.20
10133;DHT22;5106;50.926;7.080;2023-10-08T16:12:06;19.80;94.50
10133;DHT22;5106;50.926;7.080;2023-10-08T16:14:32;19.70;94.70
10133;DHT22;5106;50.926;7.080;2023-10-08T16:16:57;19.60;94.70
10133;DHT22;5106;50.926;7.080;2023-10-08T16:19:23;19.50;94.80
10133;DHT22;5106;50.926;7.080;2023-10-08T16:21:52;19.40;94.90
10133;DHT22;5106;50.926;7.080;2023-10-08T16:24:19;19.30;95.00
10133;DHT22;5106;50.926;7.080;2023-10-08T16:26:44;19.30;95.20